Etusivu
METAR-TAF:

METAR-TAF

Lentoasemat :

Morrisville-Stowe State Airport

Morrisville, Vermont, Yhdysvallat

Leveyspiiri: 44-32-10N, Pituuspiiri: 072-36-58W, korkeus merenpinnasta: 223 m

Tämänhetkinen sää

Tämä raportti tehtiin 58 minuuttia sitten, kello 03.54 UTC
Tuuli 6 kn etelästä
Lämpötila 0°C
Kosteus 86%
Ilmanpaine 1012 hPa
Näkyvyys: 16.1 km
Hajonneita pilviä 6000 ft:n korkeudessa
Pilvistä 8500 ft:n korkeudessa
tuntematon

METAR: KMVL 220354Z AUTO 17006KT 10SM UP BKN060 OVC085 00/M02 A2988 RMK AO2 UPB35 SLP128 P0000 T00001017

Aika: 23:52 (04:52 UTC)


TAF: puuttuu

Säähavainnot ja -ennusteet yli 4000 lentoasemalta (METAR- ja TAF-raportit).

Käytössä olevat sääasemat on merkitty karttaan keltaisilla ja punaisilla pisteillä.

Aseta hiiri pisteen päälle nähdäksesi sääaseman nimen.

Klikkaa sitten nähdäksesi säähavainnot ja -ennusteet.

Kartan vaihtaminen: klikkaa mustalla rastilla varustettuja vihreitä pisteitä, niin voit zoomata sisään; viivalla varustettua vihreää pistettä, niin voit zoomata ulos tai vihreitä nuolia, niin pääset viereisille kartoille.


METAR-TAF: